createdAt,value
2018-04-23T00:02:19.380Z,15.00
2018-04-23T00:04:45.352Z,14.80
2018-04-23T00:07:11.321Z,14.90
2018-04-23T00:09:37.317Z,14.90
2018-04-23T00:12:04.061Z,14.90
2018-04-23T00:14:30.780Z,14.90
2018-04-23T00:16:56.776Z,14.90
2018-04-23T00:19:22.742Z,15.00
2018-04-23T00:21:49.455Z,15.00
2018-04-23T00:24:15.440Z,15.00
2018-04-23T00:26:41.434Z,14.90
2018-04-23T00:29:08.170Z,14.90
2018-04-23T00:31:34.898Z,14.90
2018-04-23T00:34:00.861Z,14.90
2018-04-23T00:36:26.856Z,14.80
2018-04-23T00:38:53.572Z,14.70
2018-04-23T00:41:19.562Z,14.70
2018-04-23T00:43:45.541Z,14.50
2018-04-23T00:46:12.265Z,14.60
2018-04-23T00:48:38.228Z,14.60
2018-04-23T00:51:04.229Z,14.60
2018-04-23T00:53:37.117Z,14.50
2018-04-23T00:56:03.857Z,14.50
2018-04-23T00:58:30.577Z,14.50
2018-04-23T01:00:56.556Z,14.40
2018-04-23T01:03:22.543Z,14.50
2018-04-23T01:05:49.278Z,14.50
2018-04-23T01:08:15.993Z,14.50
2018-04-23T01:10:41.972Z,14.40
2018-04-23T01:13:07.945Z,14.40
2018-04-23T01:15:33.937Z,14.40
2018-04-23T01:17:59.914Z,14.40
2018-04-23T01:20:25.905Z,14.40
2018-04-23T01:22:51.869Z,14.40
2018-04-23T01:25:18.579Z,14.40
2018-04-23T01:27:44.541Z,14.40
2018-04-23T01:30:10.517Z,14.50
2018-04-23T01:32:36.502Z,14.40
2018-04-23T01:35:02.469Z,14.40
2018-04-23T01:37:28.481Z,14.40
2018-04-23T01:39:54.447Z,14.40
2018-04-23T01:42:20.488Z,14.30
2018-04-23T01:44:46.465Z,14.40
2018-04-23T01:47:12.461Z,14.30
2018-04-23T01:49:38.458Z,14.30
2018-04-23T01:52:04.477Z,14.10
2018-04-23T01:54:30.454Z,14.10
2018-04-23T01:56:56.433Z,14.10
2018-04-23T01:59:22.401Z,14.20
2018-04-23T02:01:49.146Z,14.20
2018-04-23T02:04:15.155Z,14.20
2018-04-23T02:06:41.136Z,14.20
2018-04-23T02:09:07.127Z,14.10
2018-04-23T02:11:33.865Z,14.10
2018-04-23T02:14:00.569Z,14.20
2018-04-23T02:16:26.553Z,14.10
2018-04-23T02:18:52.525Z,14.20
2018-04-23T02:21:19.277Z,14.20
2018-04-23T02:23:45.246Z,14.20
2018-04-23T02:26:11.237Z,14.20
2018-04-23T02:28:37.242Z,14.20
2018-04-23T02:31:03.225Z,14.10
2018-04-23T02:33:29.193Z,14.30
2018-04-23T02:35:55.165Z,14.20
2018-04-23T02:38:21.136Z,14.10
2018-04-23T02:40:47.106Z,14.20
2018-04-23T02:43:13.097Z,14.20
2018-04-23T02:45:39.821Z,14.20
2018-04-23T02:48:05.805Z,14.20
2018-04-23T02:50:31.778Z,14.30
2018-04-23T02:52:58.538Z,14.20
2018-04-23T02:55:24.504Z,14.20
2018-04-23T02:57:50.487Z,14.20
2018-04-23T03:00:16.477Z,14.10
2018-04-23T03:02:42.483Z,14.20
2018-04-23T03:05:08.480Z,14.10
2018-04-23T03:07:35.205Z,14.20
2018-04-23T03:10:01.185Z,14.40
2018-04-23T03:12:27.182Z,14.30
2018-04-23T03:14:53.148Z,14.30
2018-04-23T03:17:19.894Z,14.30
2018-04-23T03:19:46.613Z,14.30
2018-04-23T03:22:12.593Z,14.30
2018-04-23T03:24:38.557Z,14.20
2018-04-23T03:27:04.560Z,14.10
2018-04-23T03:29:30.533Z,14.30
2018-04-23T03:31:56.530Z,14.30
2018-04-23T03:34:23.256Z,14.20
2018-04-23T03:36:49.239Z,14.20
2018-04-23T03:39:15.216Z,14.20
2018-04-23T03:41:41.186Z,14.20
2018-04-23T03:44:07.157Z,14.30
2018-04-23T03:46:33.125Z,14.30
2018-04-23T03:48:59.100Z,14.30
2018-04-23T03:51:25.148Z,14.30
2018-04-23T03:53:51.129Z,14.30
2018-04-23T03:56:17.125Z,14.30
2018-04-23T03:58:43.133Z,14.20
2018-04-23T04:01:09.109Z,14.20
2018-04-23T04:03:35.093Z,14.30
2018-04-23T04:06:01.065Z,14.30
2018-04-23T04:08:27.065Z,14.30
2018-04-23T04:10:53.061Z,14.30
2018-04-23T04:13:25.137Z,14.10
2018-04-23T04:15:57.188Z,14.10
2018-04-23T04:18:30.025Z,14.20
2018-04-23T04:20:56.017Z,14.10
2018-04-23T04:23:22.010Z,14.20
2018-04-23T04:25:48.165Z,14.20
2018-04-23T04:28:14.160Z,14.20
2018-04-23T04:30:40.137Z,14.10
2018-04-23T04:33:06.128Z,14.20
2018-04-23T04:35:32.136Z,14.20
2018-04-23T04:37:58.112Z,14.20
2018-04-23T04:40:24.117Z,14.20
2018-04-23T04:42:50.117Z,14.10
2018-04-23T04:45:16.105Z,14.00
2018-04-23T04:47:42.825Z,14.30
2018-04-23T04:50:08.865Z,14.30
2018-04-23T04:52:35.585Z,14.10
2018-04-23T04:55:01.590Z,14.10
2018-04-23T04:57:27.590Z,14.10
2018-04-23T04:59:53.572Z,14.10
2018-04-23T05:02:20.315Z,14.10
2018-04-23T05:04:47.240Z,14.10
2018-04-23T05:07:13.214Z,14.20
2018-04-23T05:09:39.249Z,13.80
2018-04-23T05:12:05.229Z,14.10
2018-04-23T05:14:31.192Z,14.10
2018-04-23T05:16:57.336Z,14.10
2018-04-23T05:19:23.339Z,14.10
2018-04-23T05:21:49.305Z,14.10
2018-04-23T05:24:15.305Z,14.10
2018-04-23T05:26:41.276Z,14.10
2018-04-23T05:29:07.278Z,14.10
2018-04-23T05:31:33.245Z,14.20
2018-04-23T05:33:59.244Z,14.20
2018-04-23T05:36:25.974Z,14.10
2018-04-23T05:38:52.705Z,14.00
2018-04-23T05:41:19.456Z,14.10
2018-04-23T05:43:46.302Z,14.20
2018-04-23T05:46:13.038Z,14.20
2018-04-23T05:48:39.182Z,14.20
2018-04-23T05:51:05.157Z,14.10
2018-04-23T05:53:31.173Z,14.10
2018-04-23T05:55:57.141Z,14.00
2018-04-23T05:58:23.920Z,14.10
2018-04-23T06:00:49.905Z,14.10
2018-04-23T06:03:16.610Z,14.00
2018-04-23T06:05:42.597Z,14.00
2018-04-23T06:08:08.567Z,14.00
2018-04-23T06:10:34.542Z,14.00
2018-04-23T06:13:00.518Z,14.00
2018-04-23T06:15:26.491Z,13.90
2018-04-23T06:17:52.460Z,13.80
2018-04-23T06:20:18.461Z,13.80
2018-04-23T06:22:44.437Z,13.80
2018-04-23T06:25:11.145Z,13.90
2018-04-23T06:27:37.132Z,13.90
2018-04-23T06:30:03.109Z,13.90
2018-04-23T06:32:29.852Z,14.30
2018-04-23T06:34:56.577Z,14.30
2018-04-23T06:37:22.565Z,14.30
2018-04-23T06:39:48.577Z,14.20
2018-04-23T06:42:14.541Z,14.10
2018-04-23T06:44:40.529Z,14.20
2018-04-23T06:47:06.505Z,14.30
2018-04-23T06:49:33.245Z,14.20
2018-04-23T06:51:59.983Z,14.30
2018-04-23T06:54:26.708Z,14.40
2018-04-23T06:56:52.681Z,14.40
2018-04-23T06:59:18.709Z,14.30
2018-04-23T07:01:44.685Z,14.40
2018-04-23T07:04:10.677Z,14.20
2018-04-23T07:06:36.657Z,14.30
2018-04-23T07:09:02.669Z,14.10
2018-04-23T07:11:28.836Z,14.10
2018-04-23T07:13:54.855Z,14.10
2018-04-23T07:16:20.985Z,14.30
2018-04-23T07:18:46.962Z,14.30
2018-04-23T07:21:13.685Z,14.30
2018-04-23T07:23:39.656Z,14.30
2018-04-23T07:26:05.649Z,14.30
2018-04-23T07:28:32.390Z,14.60
2018-04-23T07:30:58.415Z,14.50
2018-04-23T07:33:24.436Z,14.70
2018-04-23T07:35:51.161Z,14.50
2018-04-23T07:38:17.160Z,14.60
2018-04-23T07:40:43.162Z,14.60
2018-04-23T07:43:09.157Z,14.40
2018-04-23T07:45:35.872Z,14.30
2018-04-23T07:48:01.847Z,14.30
2018-04-23T07:50:27.842Z,14.30
2018-04-23T07:52:53.845Z,14.60
2018-04-23T07:55:20.094Z,14.70
2018-04-23T07:57:46.201Z,14.80
2018-04-23T08:00:12.953Z,14.80
2018-04-23T08:02:39.669Z,14.70
2018-04-23T08:05:12.685Z,14.70
2018-04-23T08:07:39.404Z,14.50
2018-04-23T08:10:05.405Z,14.50
2018-04-23T08:12:31.372Z,14.60
2018-04-23T08:14:58.126Z,14.80
2018-04-23T08:17:24.104Z,14.70
2018-04-23T08:19:50.848Z,14.60
2018-04-23T08:22:16.817Z,14.60
2018-04-23T08:24:42.805Z,14.70
2018-04-23T08:27:08.763Z,15.20
2018-04-23T08:29:35.492Z,15.60
2018-04-23T08:32:01.562Z,15.60
2018-04-23T08:34:28.228Z,15.30
2018-04-23T08:36:54.212Z,15.30
2018-04-23T08:39:20.236Z,15.20
2018-04-23T08:41:46.246Z,15.30
2018-04-23T08:44:12.243Z,15.00
2018-04-23T08:46:39.005Z,14.60
2018-04-23T08:49:04.989Z,14.60
2018-04-23T08:51:30.965Z,14.50
2018-04-23T08:53:56.950Z,14.50
2018-04-23T08:56:22.928Z,14.80
2018-04-23T08:58:49.071Z,15.10
2018-04-23T09:01:15.125Z,15.40
2018-04-23T09:03:41.849Z,15.60
2018-04-23T09:06:07.845Z,15.60
2018-04-23T09:08:33.829Z,15.80
2018-04-23T09:10:59.834Z,15.90
2018-04-23T09:13:26.557Z,15.60
2018-04-23T09:15:52.553Z,15.50
2018-04-23T09:18:18.529Z,15.70
2018-04-23T09:20:44.530Z,15.60
2018-04-23T09:23:11.518Z,15.30
2018-04-23T09:25:37.509Z,15.30
2018-04-23T09:28:04.805Z,15.30
2018-04-23T09:30:30.806Z,15.30
2018-04-23T09:32:56.784Z,15.20
2018-04-23T09:35:22.798Z,15.20
2018-04-23T09:37:48.813Z,15.30
2018-04-23T09:40:14.793Z,15.30
2018-04-23T09:42:40.801Z,15.60
2018-04-23T09:45:07.541Z,16.00
2018-04-23T09:47:34.281Z,15.80
2018-04-23T09:50:01.009Z,15.80
2018-04-23T09:52:27.061Z,15.80
2018-04-23T09:54:53.045Z,15.80
2018-04-23T09:57:19.070Z,15.90
2018-04-23T09:59:45.050Z,15.90
2018-04-23T10:02:11.053Z,15.90
2018-04-23T10:04:37.781Z,15.90
2018-04-23T10:07:03.766Z,15.80
2018-04-23T10:09:29.749Z,15.80
2018-04-23T10:11:56.470Z,15.70
2018-04-23T10:14:23.190Z,16.00
2018-04-23T10:16:49.161Z,15.90
2018-04-23T10:19:15.160Z,16.10
2018-04-23T10:21:41.877Z,16.00
2018-04-23T10:24:07.853Z,16.00
2018-04-23T10:26:33.837Z,16.10
2018-04-23T10:29:00.582Z,16.60
2018-04-23T10:31:27.346Z,16.50
2018-04-23T10:33:54.065Z,16.30
2018-04-23T10:36:20.801Z,16.30
2018-04-23T10:38:47.553Z,16.20
2018-04-23T10:41:13.635Z,16.20
2018-04-23T10:43:39.677Z,16.40
2018-04-23T10:46:06.422Z,16.30
2018-04-23T10:48:33.197Z,16.10
2018-04-23T10:50:59.288Z,16.10
2018-04-23T10:53:25.290Z,16.00
2018-04-23T10:55:51.305Z,16.20
2018-04-23T10:58:18.090Z,16.10
2018-04-23T11:00:44.814Z,16.10
2018-04-23T11:03:10.809Z,16.10
2018-04-23T11:05:36.789Z,16.20
2018-04-23T11:08:02.781Z,16.50
2018-04-23T11:10:28.792Z,16.70
2018-04-23T11:12:56.263Z,16.30
2018-04-23T11:15:22.232Z,16.30
2018-04-23T11:17:48.225Z,16.10
2018-04-23T11:20:14.949Z,15.40
2018-04-23T11:22:40.928Z,15.30
2018-04-23T11:25:06.941Z,15.60
2018-04-23T11:27:32.916Z,16.10
2018-04-23T11:30:00.372Z,16.90
2018-04-23T11:32:26.343Z,16.90
2018-04-23T11:34:52.331Z,17.30
2018-04-23T11:37:18.304Z,17.40
2018-04-23T11:39:44.285Z,17.50
2018-04-23T11:42:11.021Z,17.70
2018-04-23T11:44:37.749Z,18.00
2018-04-23T11:47:04.681Z,17.20
2018-04-23T11:49:32.149Z,16.30
2018-04-23T11:51:59.641Z,16.00
2018-04-23T11:54:25.650Z,16.00
2018-04-23T11:56:52.389Z,16.10
2018-04-23T11:59:19.124Z,16.60
2018-04-23T12:01:45.113Z,16.60
2018-04-23T12:04:11.182Z,17.40
2018-04-23T12:06:37.200Z,17.30
2018-04-23T12:09:04.792Z,16.10
2018-04-23T12:11:30.783Z,16.10
2018-04-23T12:13:57.525Z,15.90
2018-04-23T12:16:24.249Z,15.80
2018-04-23T12:18:51.898Z,15.80
2018-04-23T12:21:18.053Z,16.00
2018-04-23T12:23:44.792Z,17.20
2018-04-23T12:26:11.554Z,17.90
2018-04-23T12:28:37.557Z,17.80
2018-04-23T12:31:05.416Z,18.20
2018-04-23T12:33:31.409Z,17.70
2018-04-23T12:35:57.638Z,17.60
2018-04-23T12:38:23.633Z,17.50
2018-04-23T12:40:51.145Z,17.40
2018-04-23T12:43:17.158Z,16.90
2018-04-23T12:45:44.169Z,17.20
2018-04-23T12:48:10.169Z,17.90
2018-04-23T12:50:38.956Z,18.50
2018-04-23T12:53:06.564Z,19.00
2018-04-23T12:55:32.540Z,19.00
2018-04-23T12:58:00.137Z,18.80
2018-04-23T13:00:26.130Z,18.80
2018-04-23T13:02:53.703Z,18.30
2018-04-23T13:05:19.677Z,18.20
2018-04-23T13:07:46.397Z,17.80
2018-04-23T13:10:13.293Z,17.50
2018-04-23T13:12:40.221Z,17.20
2018-04-23T13:15:07.779Z,17.50
2018-04-23T13:17:35.064Z,18.20
2018-04-23T13:20:01.094Z,18.10
2018-04-23T13:22:27.821Z,18.70
2018-04-23T13:24:54.422Z,18.70
2018-04-23T13:27:22.304Z,17.70
2018-04-23T13:29:52.409Z,17.20
2018-04-23T13:32:29.180Z,17.70
2018-04-23T13:34:56.773Z,17.60
2018-04-23T13:37:23.089Z,17.90
2018-04-23T13:39:51.058Z,18.40
2018-04-23T13:42:18.810Z,18.60
2018-04-23T13:44:48.488Z,18.70
2018-04-23T13:47:16.837Z,19.10
2018-04-23T13:49:44.642Z,18.70
2018-04-23T13:52:13.016Z,17.30
2018-04-23T13:54:41.145Z,17.30
2018-04-23T13:57:11.632Z,17.50
2018-04-23T13:59:41.206Z,17.90
2018-04-23T14:02:11.301Z,18.80
2018-04-23T14:04:39.856Z,19.20
2018-04-23T14:07:08.764Z,19.70
2018-04-23T14:09:37.037Z,19.50
2018-04-23T14:12:06.402Z,19.80
2018-04-23T14:14:35.226Z,19.80
2018-04-23T14:17:03.556Z,19.70
2018-04-23T14:19:34.934Z,19.00
2018-04-23T14:22:05.165Z,19.60
2018-04-23T14:24:35.665Z,18.70
2018-04-23T14:27:15.004Z,19.00
2018-04-23T14:29:46.942Z,19.80
2018-04-23T14:32:20.873Z,19.80
2018-04-23T14:34:51.721Z,19.80
2018-04-23T14:37:26.623Z,19.80
2018-04-23T14:40:02.695Z,19.80
2018-04-23T14:42:46.184Z,19.90
2018-04-23T14:45:36.015Z,19.30
2018-04-23T14:48:21.210Z,19.30
2018-04-23T14:54:04.768Z,19.20
2018-04-23T14:56:59.489Z,19.70
2018-04-23T17:08:15.764Z,16.10
2018-04-23T17:10:41.866Z,16.00
2018-04-23T17:13:09.324Z,15.80
2018-04-23T17:15:35.342Z,15.80
2018-04-23T17:18:02.102Z,16.70
2018-04-23T17:20:28.847Z,17.00
2018-04-23T17:22:55.582Z,17.30
2018-04-23T17:25:21.573Z,17.30
2018-04-23T17:27:47.560Z,17.50
2018-04-23T17:30:13.537Z,17.30
2018-04-23T17:32:39.538Z,17.30
2018-04-23T17:35:05.517Z,17.40
2018-04-23T17:37:31.498Z,17.50
2018-04-23T17:39:57.505Z,17.60
2018-04-23T17:42:23.509Z,17.10
2018-04-23T17:44:49.517Z,16.70
2018-04-23T17:47:15.581Z,16.30
2018-04-23T17:49:41.577Z,15.80
2018-04-23T17:52:07.569Z,16.00
2018-04-23T17:54:34.317Z,16.10
2018-04-23T17:57:01.045Z,15.50
2018-04-23T17:59:27.762Z,15.20
2018-04-23T18:01:53.775Z,15.20
2018-04-23T18:04:19.772Z,14.90
2018-04-23T18:06:45.773Z,14.90
2018-04-23T18:09:11.825Z,14.60
2018-04-23T18:11:37.837Z,14.50
2018-04-23T18:14:03.842Z,14.50
2018-04-23T18:16:29.851Z,14.50
2018-04-23T18:18:56.593Z,14.10
2018-04-23T18:21:23.345Z,13.80
2018-04-23T18:23:49.336Z,13.80
2018-04-23T18:26:15.345Z,13.80
2018-04-23T18:28:41.338Z,13.70
2018-04-23T18:31:07.341Z,13.70
2018-04-23T18:33:33.323Z,13.70
2018-04-23T18:35:59.381Z,13.50
2018-04-23T18:38:25.398Z,13.70
2018-04-23T18:40:51.422Z,13.70
2018-04-23T18:43:17.481Z,13.40
2018-04-23T18:45:43.515Z,13.30
2018-04-23T18:48:09.464Z,13.30
2018-04-23T18:50:35.483Z,13.10
2018-04-23T18:53:01.488Z,13.50
2018-04-23T18:55:27.473Z,13.30
2018-04-23T18:57:54.205Z,13.10
2018-04-23T19:00:20.390Z,13.10
2018-04-23T19:02:46.396Z,13.10
2018-04-23T19:05:12.389Z,12.90
2018-04-23T19:07:38.394Z,12.90
2018-04-23T19:10:05.125Z,12.70
2018-04-23T19:12:31.185Z,12.70
2018-04-23T19:14:57.169Z,12.70
2018-04-23T19:17:23.173Z,12.90
2018-04-23T19:19:49.193Z,12.80
2018-04-23T19:22:15.304Z,12.70
2018-04-23T19:24:41.284Z,12.70
2018-04-23T19:27:08.025Z,12.70
2018-04-23T19:29:34.758Z,12.50
2018-04-23T19:32:01.489Z,12.50
2018-04-23T19:34:27.519Z,12.50
2018-04-23T19:36:54.301Z,12.30
2018-04-23T19:39:20.533Z,12.20
2018-04-23T19:41:46.570Z,12.10
2018-04-23T19:44:12.581Z,12.10
2018-04-23T19:46:38.577Z,12.20
2018-04-23T19:49:04.592Z,12.10
2018-04-23T19:51:31.320Z,11.90
2018-04-23T19:53:57.317Z,11.90
2018-04-23T19:56:23.316Z,12.20
2018-04-23T19:58:49.312Z,12.30
2018-04-23T20:01:16.096Z,12.10
2018-04-23T20:03:42.089Z,12.10
2018-04-23T20:06:08.091Z,12.10
2018-04-23T20:08:34.996Z,12.00
2018-04-23T20:11:00.968Z,12.00
2018-04-23T20:13:27.696Z,11.90
2018-04-23T20:15:54.470Z,11.90
2018-04-23T20:18:20.456Z,11.90
2018-04-23T20:20:46.601Z,11.90
2018-04-23T20:23:12.970Z,11.90
2018-04-23T20:25:38.874Z,11.60
2018-04-23T20:28:04.865Z,11.70
2018-04-23T20:30:31.603Z,11.60
2018-04-23T20:32:58.379Z,11.50
2018-04-23T20:35:24.471Z,11.50
2018-04-23T20:37:50.456Z,11.70
2018-04-23T20:40:16.438Z,11.70
2018-04-23T20:42:42.429Z,11.60
2018-04-23T20:45:08.425Z,11.60
2018-04-23T20:47:34.417Z,11.50
2018-04-23T20:50:00.409Z,11.40
2018-04-23T20:52:27.164Z,11.20
2018-04-23T20:54:53.893Z,11.20
2018-04-23T20:57:20.630Z,11.30
2018-04-23T20:59:47.361Z,11.40
2018-04-23T21:02:13.357Z,11.30
2018-04-23T21:04:39.364Z,11.30
2018-04-23T21:07:05.341Z,11.40
2018-04-23T21:09:32.077Z,11.30
2018-04-23T21:11:58.057Z,11.30
2018-04-23T21:14:24.065Z,11.30
2018-04-23T21:16:50.053Z,11.30
2018-04-23T21:19:16.777Z,11.30
2018-04-23T21:21:42.753Z,11.30
2018-04-23T21:24:08.755Z,10.90
2018-04-23T21:26:35.483Z,10.70
2018-04-23T21:29:02.228Z,10.70
2018-04-23T21:31:28.977Z,10.90
2018-04-23T21:33:54.969Z,10.90
2018-04-23T21:36:21.729Z,10.60
2018-04-23T21:38:48.596Z,10.70
2018-04-23T21:41:14.596Z,10.70
2018-04-23T21:43:41.390Z,10.80
2018-04-23T21:46:07.336Z,10.80
2018-04-23T21:48:33.349Z,10.90
2018-04-23T21:50:59.401Z,10.30
2018-04-23T21:53:25.440Z,10.60
2018-04-23T21:55:52.166Z,10.50
2018-04-23T21:58:18.916Z,10.60
2018-04-23T22:00:45.644Z,10.40
2018-04-23T22:03:12.373Z,10.60
2018-04-23T22:05:38.540Z,10.60
2018-04-23T22:08:04.529Z,10.70
2018-04-23T22:10:30.522Z,10.70
2018-04-23T22:12:56.513Z,10.60
2018-04-23T22:15:22.496Z,10.50
2018-04-23T22:17:49.261Z,10.40
2018-04-23T22:20:15.989Z,10.50
2018-04-23T22:22:42.740Z,10.40
2018-04-23T22:25:08.737Z,10.40
2018-04-23T22:27:34.708Z,10.30
2018-04-23T22:30:00.685Z,10.30
2018-04-23T22:32:26.691Z,10.40
2018-04-23T22:34:52.661Z,10.50
2018-04-23T22:37:19.421Z,10.30
2018-04-23T22:39:45.404Z,10.20
2018-04-23T22:42:11.393Z,10.40
2018-04-23T22:44:37.401Z,10.30
2018-04-23T22:47:03.432Z,10.20
2018-04-23T22:49:29.415Z,10.20
2018-04-23T22:51:56.137Z,10.30
2018-04-23T22:54:22.142Z,10.30
2018-04-23T22:56:48.124Z,10.30
2018-04-23T22:59:14.117Z,10.30
2018-04-23T23:01:40.880Z,10.30
2018-04-23T23:04:07.577Z,9.90
2018-04-23T23:06:33.553Z,9.90
2018-04-23T23:08:59.549Z,10.00
2018-04-23T23:11:26.281Z,10.20
2018-04-23T23:13:53.017Z,10.20
2018-04-23T23:16:19.778Z,10.10
2018-04-23T23:18:46.505Z,10.00
2018-04-23T23:21:13.221Z,10.00
2018-04-23T23:23:39.982Z,10.20
2018-04-23T23:26:06.719Z,10.30
2018-04-23T23:28:33.465Z,10.30
2018-04-23T23:31:00.185Z,10.10
2018-04-23T23:33:26.186Z,10.10
2018-04-23T23:35:52.189Z,10.20
2018-04-23T23:38:18.193Z,10.00
2018-04-23T23:40:44.182Z,10.00
2018-04-23T23:43:10.941Z,10.00
2018-04-23T23:45:37.661Z,9.90
2018-04-23T23:48:03.635Z,9.90
2018-04-23T23:50:29.633Z,10.00
2018-04-23T23:52:55.653Z,10.10
2018-04-23T23:55:21.689Z,10.00
2018-04-23T23:57:48.393Z,10.00
